Terminal Aerodrome Forecast
Issued by NWS Duluth, MN

Home | Current Version | Previous Version | Text Only | Print | Product List | Glossary On
Versions: 1 2 3 4 5 6 7 8 9 10 11 12 13
356
FTUS43 KDLH 272329
TAFINL
TAF
KINL 272329Z 2800/2824 03004KT P6SM FEW040
      TEMPO 2809/2812 3SM BR
     FM281400 VRB05KT P6SM SKC=

USA.gov is the U.S. government's official web portal to all federal, state and local government web resources and services.